Time;durP1;ratioP1;P1;durP2;ratioP2;P2;SDS_P1;SDS_P2;PMS_P1;PMS_P2;Temp;Humidity;BMP_temperature;BMP_pressure;BME280_temperature;BME280_humidity;BME280_pressure;Samples;Min_cycle;Max_cycle;Signal;HPM_P1;HPM_P2
2023/03/03 00:01:45;;;;;;;2.33;1.60;;;5.50;99.90;;;;;;4961134;28;20108;-77
2023/03/03 00:04:12;;;;;;;3.95;1.77;;;5.40;99.90;;;;;;4962531;28;20288;-78
2023/03/03 00:06:39;;;;;;;3.20;1.38;;;5.40;99.90;;;;;;4960662;28;20153;-78
2023/03/03 00:09:06;;;;;;;2.95;1.77;;;5.50;99.90;;;;;;4976659;28;20406;-78
2023/03/03 00:11:33;;;;;;;2.22;1.60;;;5.50;99.90;;;;;;4960303;28;20157;-77
2023/03/03 00:14:00;;;;;;;1.75;1.25;;;5.40;99.90;;;;;;4973714;28;20053;-78
2023/03/03 00:16:39;;;;;;;1.63;1.37;;;5.50;99.90;;;;;;4623270;28;10000714;-77
2023/03/03 00:19:14;;;;;;;1.70;1.35;;;5.50;99.90;;;;;;4949545;28;20150;-78
2023/03/03 00:21:42;;;;;;;1.40;1.17;;;5.60;99.90;;;;;;4940240;28;20051;-79
2023/03/03 00:24:36;;;;;;;1.75;1.42;;;5.60;99.90;;;;;;4960535;28;20055;-78
2023/03/03 00:27:28;;;;;;;2.33;1.48;;;5.60;99.90;;;;;;4948176;28;20498;-78
2023/03/03 00:29:59;;;;;;;1.80;1.20;;;5.70;99.90;;;;;;4956067;28;20145;-77
2023/03/03 00:32:30;;;;;;;2.10;1.52;;;5.60;99.90;;;;;;4977277;28;20561;-78
2023/03/03 00:35:02;;;;;;;1.50;1.15;;;5.60;99.90;;;;;;4958062;28;20046;-79
2023/03/03 00:37:33;;;;;;;1.73;1.40;;;5.60;99.90;;;;;;4958338;28;20140;-78
2023/03/03 00:40:23;;;;;;;1.77;1.00;;;5.60;99.90;;;;;;4973733;28;20047;-78
2023/03/03 00:42:54;;;;;;;1.63;1.40;;;5.60;99.90;;;;;;4966087;28;20046;-77
2023/03/03 00:45:27;;;;;;;2.28;1.70;;;5.60;99.90;;;;;;4968712;28;20321;-78
2023/03/03 00:47:54;;;;;;;2.35;1.45;;;5.60;99.90;;;;;;4960724;28;20054;-78
2023/03/03 00:50:25;;;;;;;1.80;1.50;;;5.60;99.90;;;;;;4959427;28;20721;-78
2023/03/03 00:53:06;;;;;;;1.80;1.42;;;5.60;99.90;;;;;;4963969;28;20148;-78
2023/03/03 00:55:33;;;;;;;2.17;1.33;;;5.60;99.90;;;;;;4951460;28;20058;-78
2023/03/03 00:58:00;;;;;;;2.03;1.60;;;5.60;99.90;;;;;;4958071;28;20134;-78
2023/03/03 01:00:27;;;;;;;1.50;1.10;;;5.60;99.90;;;;;;4957576;28;20487;-78
2023/03/03 01:02:54;;;;;;;2.15;1.30;;;5.60;99.90;;;;;;4959886;28;20118;-77
2023/03/03 01:05:21;;;;;;;6.22;1.42;;;5.60;99.90;;;;;;4964581;28;20447;-78
2023/03/03 01:07:47;;;;;;;1.95;1.40;;;5.60;99.90;;;;;;4954608;28;20562;-78
2023/03/03 01:10:14;;;;;;;2.10;1.40;;;5.60;99.90;;;;;;4941115;28;20046;-78
2023/03/03 01:12:41;;;;;;;1.45;1.13;;;5.60;99.90;;;;;;4945355;28;20047;-77
2023/03/03 01:15:09;;;;;;;2.78;1.30;;;5.60;99.90;;;;;;4972923;28;20090;-77
2023/03/03 01:17:36;;;;;;;2.38;1.50;;;5.60;99.90;;;;;;4946954;28;20090;-78
2023/03/03 01:20:03;;;;;;;3.45;1.90;;;5.60;99.90;;;;;;4973438;28;20074;-78
2023/03/03 01:22:30;;;;;;;2.53;1.85;;;5.60;99.90;;;;;;4959699;28;20267;-78
2023/03/03 01:24:56;;;;;;;2.78;1.90;;;5.60;99.90;;;;;;4966291;28;20576;-78
2023/03/03 01:27:27;;;;;;;2.88;1.83;;;5.60;99.90;;;;;;4942941;28;20541;-77
2023/03/03 01:29:55;;;;;;;2.60;2.00;;;5.60;99.90;;;;;;4957750;28;20047;-78
2023/03/03 01:32:25;;;;;;;3.42;2.42;;;5.60;99.90;;;;;;4957865;28;20059;-77
2023/03/03 01:34:52;;;;;;;3.00;1.80;;;5.60;99.90;;;;;;4967963;28;20154;-78
2023/03/03 01:37:20;;;;;;;2.13;1.67;;;5.60;99.90;;;;;;4958595;28;20285;-77
2023/03/03 01:39:53;;;;;;;2.88;1.92;;;5.70;99.90;;;;;;4973373;28;20121;-78
2023/03/03 01:42:20;;;;;;;2.10;1.35;;;5.60;99.90;;;;;;4958989;28;20056;-78
2023/03/03 01:44:47;;;;;;;2.28;1.50;;;5.60;99.90;;;;;;4962417;28;20500;-77
2023/03/03 01:47:19;;;;;;;2.13;1.33;;;5.60;99.90;;;;;;4958426;28;20047;-78
2023/03/03 01:49:51;;;;;;;2.42;1.50;;;5.60;99.90;;;;;;4957867;28;20118;-77
2023/03/03 01:52:33;;;;;;;2.13;1.83;;;5.60;99.90;;;;;;4962351;28;20066;-77
2023/03/03 01:55:03;;;;;;;2.00;1.50;;;5.60;99.90;;;;;;4950055;28;20109;-77
2023/03/03 01:57:32;;;;;;;2.25;1.38;;;5.60;99.90;;;;;;4954788;28;20091;-77
2023/03/03 01:59:59;;;;;;;3.05;2.05;;;5.60;99.90;;;;;;4937496;29;20154;-78
2023/03/03 02:02:26;;;;;;;2.35;1.80;;;5.60;99.90;;;;;;4957185;28;20566;-78
2023/03/03 02:04:53;;;;;;;2.35;1.67;;;5.60;99.90;;;;;;4946120;28;20057;-78
2023/03/03 02:07:20;;;;;;;2.28;1.85;;;5.50;99.90;;;;;;4957954;28;20388;-77
2023/03/03 02:10:17;;;;;;;2.20;1.50;;;5.60;99.90;;;;;;4954356;28;20292;-77
2023/03/03 02:12:50;;;;;;;2.28;1.58;;;5.50;99.90;;;;;;4945368;28;20475;-77
2023/03/03 02:15:31;;;;;;;2.45;1.70;;;5.50;99.90;;;;;;4962180;28;20050;-77
2023/03/03 02:18:14;;;;;;;2.25;1.60;;;5.50;99.90;;;;;;4958572;28;20437;-77
2023/03/03 02:20:50;;;;;;;2.58;1.85;;;5.60;99.90;;;;;;4938101;28;20055;-78
2023/03/03 02:23:23;;;;;;;1.90;1.60;;;5.60;99.90;;;;;;4960256;28;20875;-78
2023/03/03 02:26:01;;;;;;;2.63;1.73;;;5.60;99.90;;;;;;4971347;28;20128;-78
2023/03/03 02:28:30;;;;;;;1.98;1.50;;;5.60;99.90;;;;;;4953357;28;20153;-78
2023/03/03 02:30:58;;;;;;;2.12;1.76;;;5.60;99.90;;;;;;4596728;28;10001729;-78
2023/03/03 02:33:25;;;;;;;2.10;1.55;;;5.60;99.90;;;;;;4965006;28;20046;-78
2023/03/03 02:35:52;;;;;;;3.58;1.88;;;5.60;99.90;;;;;;4955666;28;20133;-78
2023/03/03 02:38:26;;;;;;;3.65;2.13;;;5.60;99.90;;;;;;4959905;28;20046;-78
2023/03/03 02:41:17;;;;;;;2.10;1.60;;;5.60;99.90;;;;;;4975069;28;20389;-77
2023/03/03 02:43:50;;;;;;;2.55;1.95;;;5.50;99.90;;;;;;4964236;28;20466;-78
2023/03/03 02:46:18;;;;;;;;;;;5.60;99.90;;;;;;4961551;28;20049;-77
2023/03/03 02:48:44;;;;;;;2.50;1.80;;;5.50;99.90;;;;;;4963069;28;19964;-78
2023/03/03 02:51:11;;;;;;;2.67;2.00;;;5.50;99.90;;;;;;4963886;28;20129;-77
2023/03/03 02:53:38;;;;;;;2.45;1.73;;;5.60;99.90;;;;;;4985169;28;20141;-77
2023/03/03 02:56:08;;;;;;;2.20;1.50;;;5.60;99.90;;;;;;4943345;28;20113;-77
2023/03/03 02:58:35;;;;;;;3.20;1.98;;;5.60;99.90;;;;;;4960510;28;20051;-78
2023/03/03 03:01:03;;;;;;;2.38;1.88;;;5.50;99.90;;;;;;4962272;28;20137;-77
2023/03/03 03:03:30;;;;;;;2.17;1.80;;;5.50;99.90;;;;;;4959029;28;20055;-77
2023/03/03 03:05:57;;;;;;;2.45;1.73;;;5.50;99.90;;;;;;4976580;28;20498;-77
2023/03/03 03:08:24;;;;;;;2.25;1.60;;;5.50;99.90;;;;;;4944817;28;20054;-77
2023/03/03 03:10:51;;;;;;;2.35;1.50;;;5.50;99.90;;;;;;4961453;28;20047;-76
2023/03/03 03:13:17;;;;;;;6.32;2.35;;;5.50;99.90;;;;;;4971563;28;20086;-77
2023/03/03 03:15:45;;;;;;;2.90;2.03;;;5.50;99.90;;;;;;4976648;28;20092;-78
2023/03/03 03:18:13;;;;;;;2.05;1.58;;;5.40;99.90;;;;;;4961777;28;20081;-78
2023/03/03 03:20:40;;;;;;;2.58;2.08;;;5.40;99.90;;;;;;4962627;28;20141;-77
2023/03/03 03:23:07;;;;;;;2.83;2.25;;;5.40;99.90;;;;;;4978790;28;20580;-77
2023/03/03 03:25:36;;;;;;;2.60;2.10;;;5.40;99.90;;;;;;4976199;28;20479;-78
2023/03/03 03:28:03;;;;;;;3.97;2.97;;;5.40;99.90;;;;;;4960401;28;20047;-78
2023/03/03 03:30:30;;;;;;;2.95;2.25;;;5.40;99.90;;;;;;4960847;28;20065;-77
2023/03/03 03:32:57;;;;;;;3.28;2.53;;;5.30;99.90;;;;;;4976557;28;20653;-78
2023/03/03 03:35:24;;;;;;;3.50;2.60;;;5.30;99.90;;;;;;4964740;28;20078;-77
2023/03/03 03:37:51;;;;;;;3.13;2.17;;;5.30;99.90;;;;;;4963016;28;20069;-78
2023/03/03 03:40:19;;;;;;;2.55;2.13;;;5.30;99.90;;;;;;4946158;28;20144;-77
2023/03/03 03:42:46;;;;;;;2.28;1.92;;;5.40;99.90;;;;;;4975551;28;20050;-78
2023/03/03 03:45:14;;;;;;;2.75;2.38;;;5.40;99.90;;;;;;4986827;28;20649;-77
2023/03/03 03:47:42;;;;;;;2.30;1.92;;;5.40;99.90;;;;;;4966526;28;20090;-77
2023/03/03 03:50:09;;;;;;;2.40;1.80;;;5.40;99.90;;;;;;4963903;28;20051;-78
2023/03/03 03:52:36;;;;;;;1.92;1.65;;;5.40;99.90;;;;;;4960103;28;20070;-78
2023/03/03 03:55:03;;;;;;;2.35;1.80;;;5.40;99.90;;;;;;4970463;28;20086;-78
2023/03/03 03:57:30;;;;;;;3.15;2.45;;;5.40;99.90;;;;;;4948486;28;20055;-77
2023/03/03 03:59:57;;;;;;;2.20;1.70;;;5.40;99.90;;;;;;4962729;28;20154;-78
2023/03/03 04:02:24;;;;;;;2.13;1.80;;;5.40;99.90;;;;;;4987573;28;20055;-78
2023/03/03 04:04:51;;;;;;;2.63;2.17;;;5.40;99.90;;;;;;4953759;28;20066;-77
2023/03/03 04:07:18;;;;;;;2.45;1.75;;;5.40;99.90;;;;;;4964058;28;20511;-78
2023/03/03 04:09:45;;;;;;;2.03;1.50;;;5.40;99.90;;;;;;4963435;28;20134;-78
2023/03/03 04:12:11;;;;;;;2.22;1.75;;;5.40;99.90;;;;;;4970681;28;20637;-77
2023/03/03 04:14:38;;;;;;;2.13;1.48;;;5.40;99.90;;;;;;4963683;28;20410;-77
2023/03/03 04:17:05;;;;;;;2.15;1.92;;;5.40;99.90;;;;;;4948642;28;20057;-77
2023/03/03 04:19:32;;;;;;;2.95;1.85;;;5.40;99.90;;;;;;4963654;28;20051;-77
2023/03/03 04:21:59;;;;;;;2.20;2.00;;;5.30;99.90;;;;;;4964770;28;20150;-77
2023/03/03 04:24:26;;;;;;;3.55;2.53;;;5.30;99.90;;;;;;4976572;28;20133;-77
2023/03/03 04:26:53;;;;;;;3.72;2.28;;;5.30;99.90;;;;;;4962657;28;20485;-78
2023/03/03 04:29:19;;;;;;;2.13;1.67;;;5.30;99.90;;;;;;4965077;28;20070;-77
2023/03/03 04:31:46;;;;;;;2.00;1.60;;;5.30;99.90;;;;;;4953017;28;20054;-77
2023/03/03 04:34:14;;;;;;;2.22;1.92;;;5.20;99.90;;;;;;4991190;28;20077;-77
2023/03/03 04:36:41;;;;;;;2.60;1.80;;;5.30;99.90;;;;;;4946827;28;20050;-77
2023/03/03 04:39:07;;;;;;;2.50;2.10;;;5.30;99.90;;;;;;4945506;28;20051;-78
2023/03/03 04:41:34;;;;;;;2.65;1.80;;;5.20;99.90;;;;;;4964091;28;20046;-77
2023/03/03 04:44:01;;;;;;;2.75;2.13;;;5.20;99.90;;;;;;4958713;28;20122;-77
2023/03/03 04:46:28;;;;;;;3.72;2.30;;;5.20;99.90;;;;;;4956351;28;20050;-77
2023/03/03 04:48:55;;;;;;;2.58;2.05;;;5.20;99.90;;;;;;4964517;28;20049;-77
2023/03/03 04:51:22;;;;;;;2.13;1.40;;;5.20;99.90;;;;;;4965003;28;20061;-78
2023/03/03 04:53:49;;;;;;;1.90;1.70;;;5.10;99.90;;;;;;4992656;28;20051;-77
2023/03/03 04:56:16;;;;;;;3.53;1.67;;;5.20;99.90;;;;;;4962068;28;20061;-77
2023/03/03 04:58:43;;;;;;;2.30;1.65;;;5.20;99.90;;;;;;4946929;28;20073;-77
2023/03/03 05:01:13;;;;;;;1.75;1.35;;;5.20;99.90;;;;;;4946984;28;20105;-77
2023/03/03 05:03:40;;;;;;;2.47;1.80;;;5.20;99.90;;;;;;4977998;28;20046;-77
2023/03/03 05:06:07;;;;;;;2.28;1.65;;;5.20;99.90;;;;;;4964324;28;20467;-78
2023/03/03 05:08:33;;;;;;;2.55;1.75;;;5.20;99.90;;;;;;4962922;28;20078;-78
2023/03/03 05:11:01;;;;;;;1.85;1.65;;;5.20;99.90;;;;;;4944722;28;20061;-78
2023/03/03 05:13:28;;;;;;;2.17;1.70;;;5.10;99.90;;;;;;4975241;28;20383;-78
2023/03/03 05:15:55;;;;;;;2.40;1.80;;;5.10;99.90;;;;;;4946486;28;20156;-77
2023/03/03 05:18:22;;;;;;;1.98;1.42;;;5.10;99.90;;;;;;4962738;28;20050;-77
2023/03/03 05:20:50;;;;;;;2.85;1.33;;;5.10;99.90;;;;;;4614739;28;10001291;-78
2023/03/03 05:23:17;;;;;;;2.35;1.63;;;5.10;99.90;;;;;;4952259;28;20163;-78
2023/03/03 05:25:46;;;;;;;1.40;1.20;;;5.10;99.90;;;;;;4960840;28;20466;-77
2023/03/03 05:28:13;;;;;;;1.98;1.25;;;5.10;99.90;;;;;;4961591;28;20090;-77
2023/03/03 05:30:40;;;;;;;1.90;1.40;;;5.10;99.90;;;;;;4954218;28;20051;-77
2023/03/03 05:33:06;;;;;;;1.63;1.23;;;5.10;99.90;;;;;;4964605;28;20092;-77
2023/03/03 05:35:33;;;;;;;1.98;1.45;;;5.10;99.90;;;;;;4966202;28;20051;-78
2023/03/03 05:38:00;;;;;;;1.80;1.27;;;5.10;99.90;;;;;;4937845;28;20188;-77
2023/03/03 05:40:30;;;;;;;1.60;1.30;;;5.10;99.90;;;;;;4947758;28;20097;-76
2023/03/03 05:42:57;;;;;;;1.55;1.20;;;5.10;99.90;;;;;;4957058;28;20486;-77
2023/03/03 05:45:24;;;;;;;1.98;1.50;;;5.10;99.90;;;;;;5000271;28;20129;-77
2023/03/03 05:47:51;;;;;;;1.17;1.08;;;5.10;99.90;;;;;;4987358;28;20133;-78
2023/03/03 05:50:21;;;;;;;1.42;1.20;;;5.10;99.90;;;;;;4947937;28;20058;-79
2023/03/03 05:52:49;;;;;;;1.48;1.27;;;5.10;99.90;;;;;;4972302;28;20602;-77
2023/03/03 05:55:16;;;;;;;1.85;1.27;;;5.10;99.90;;;;;;4964714;28;20081;-77
2023/03/03 05:57:43;;;;;;;1.55;1.17;;;5.10;99.90;;;;;;4965246;28;20055;-77
2023/03/03 06:00:11;;;;;;;1.60;1.40;;;5.00;99.90;;;;;;4962814;28;20050;-77
2023/03/03 06:02:38;;;;;;;1.58;1.23;;;5.00;99.90;;;;;;4983792;28;20066;-77
2023/03/03 06:05:05;;;;;;;1.55;1.23;;;5.00;99.90;;;;;;4960402;28;20058;-76
2023/03/03 06:07:32;;;;;;;1.75;1.30;;;5.00;99.90;;;;;;4960511;28;20055;-77
2023/03/03 06:09:59;;;;;;;1.55;1.40;;;5.00;99.90;;;;;;4960889;28;20051;-77
2023/03/03 06:12:25;;;;;;;1.98;1.20;;;5.00;99.90;;;;;;4966369;28;20133;-77
2023/03/03 06:14:52;;;;;;;1.98;1.33;;;5.00;99.90;;;;;;4994872;28;20047;-77
2023/03/03 06:17:19;;;;;;;1.80;1.40;;;5.00;99.90;;;;;;4960302;28;20150;-77
2023/03/03 06:19:47;;;;;;;2.67;1.50;;;5.00;99.90;;;;;;4960579;28;20047;-77
2023/03/03 06:22:14;;;;;;;1.60;1.30;;;4.90;99.90;;;;;;4957139;28;20556;-77
2023/03/03 06:24:40;;;;;;;1.95;1.20;;;4.90;99.90;;;;;;4942677;28;20166;-77
2023/03/03 06:27:08;;;;;;;1.23;1.05;;;5.00;99.90;;;;;;4961853;28;20057;-77
2023/03/03 06:29:35;;;;;;;1.58;1.23;;;5.00;99.90;;;;;;4959397;28;20138;-78
2023/03/03 06:32:01;;;;;;;1.95;1.20;;;5.00;99.90;;;;;;4947215;28;20062;-77
2023/03/03 06:34:28;;;;;;;1.92;1.25;;;4.90;99.90;;;;;;4975003;28;20414;-77
2023/03/03 06:36:56;;;;;;;2.67;1.60;;;4.90;99.90;;;;;;4974753;28;20134;-77
2023/03/03 06:39:22;;;;;;;1.80;1.40;;;4.90;99.90;;;;;;4972137;28;20047;-77
2023/03/03 06:41:49;;;;;;;1.95;1.33;;;4.90;99.90;;;;;;4972927;28;20129;-77
2023/03/03 06:44:16;;;;;;;1.88;1.50;;;5.00;99.90;;;;;;4960849;28;20157;-77
2023/03/03 06:46:43;;;;;;;1.10;0.93;;;5.00;99.90;;;;;;4974420;28;20130;-78
2023/03/03 06:49:10;;;;;;;1.98;1.50;;;5.00;99.90;;;;;;4959273;28;20054;-77
2023/03/03 06:51:38;;;;;;;1.80;1.30;;;5.00;99.90;;;;;;4974353;28;20147;-77
2023/03/03 06:54:16;;;;;;;2.15;1.30;;;5.10;99.90;;;;;;4961567;28;20050;-77
2023/03/03 06:56:43;;;;;;;1.60;1.00;;;5.10;99.90;;;;;;4970863;28;20073;-77
2023/03/03 06:59:18;;;;;;;1.35;1.15;;;5.10;99.90;;;;;;4959933;28;20133;-77
2023/03/03 07:01:46;;;;;;;2.05;1.40;;;5.10;99.90;;;;;;4970157;28;20252;-77
2023/03/03 07:04:27;;;;;;;0.95;0.80;;;5.10;99.90;;;;;;4960721;28;20055;-78
2023/03/03 07:06:59;;;;;;;1.48;1.17;;;5.10;99.90;;;;;;4958849;28;20047;-76
2023/03/03 07:09:27;;;;;;;1.80;1.35;;;5.00;99.90;;;;;;4972520;28;20082;-77
2023/03/03 07:11:59;;;;;;;1.98;1.38;;;5.00;99.90;;;;;;4951676;28;20062;-78
2023/03/03 07:14:27;;;;;;;2.20;1.45;;;5.00;99.90;;;;;;4957035;28;20146;-77
2023/03/03 07:17:00;;;;;;;2.13;1.55;;;5.00;99.90;;;;;;4957407;28;20130;-77
2023/03/03 07:19:34;;;;;;;2.78;1.50;;;5.00;99.90;;;;;;4982069;28;20572;-88
2023/03/03 07:22:11;;;;;;;1.45;1.15;;;5.00;99.90;;;;;;4963270;28;20059;-76
2023/03/03 07:24:38;;;;;;;2.13;1.33;;;5.00;99.90;;;;;;4958294;28;20134;-76
2023/03/03 07:27:05;;;;;;;1.63;1.30;;;5.10;99.90;;;;;;4971723;28;20141;-77
2023/03/03 07:29:32;;;;;;;2.65;1.60;;;5.10;99.90;;;;;;4942162;28;20089;-76
2023/03/03 07:32:00;;;;;;;1.73;1.45;;;5.10;99.90;;;;;;4955265;28;20089;-78
2023/03/03 07:34:36;;;;;;;2.03;1.30;;;5.20;99.90;;;;;;4982646;28;20053;-77
2023/03/03 07:37:09;;;;;;;2.13;1.20;;;5.20;99.90;;;;;;4950637;28;20057;-78
2023/03/03 07:39:37;;;;;;;1.83;1.08;;;5.20;99.90;;;;;;4966130;28;20419;-77
2023/03/03 07:42:28;;;;;;;1.73;1.40;;;5.30;99.90;;;;;;4955741;28;20178;-78
2023/03/03 07:44:58;;;;;;;2.45;1.80;;;5.30;99.90;;;;;;4955349;28;20077;-79
2023/03/03 07:47:27;;;;;;;2.15;1.60;;;5.40;99.90;;;;;;4971706;28;20046;-78
2023/03/03 07:50:15;;;;;;;2.47;1.73;;;5.50;99.90;;;;;;4959073;28;20441;-85
2023/03/03 07:52:44;;;;;;;2.03;1.60;;;5.60;99.90;;;;;;4946750;28;20078;-88
2023/03/03 07:55:38;;;;;;;1.85;1.35;;;5.70;99.90;;;;;;4958898;28;20150;-86
2023/03/03 07:58:15;;;;;;;1.73;1.30;;;5.70;99.90;;;;;;4938865;28;20508;-86
2023/03/03 08:00:42;;;;;;;2.53;1.35;;;5.70;99.90;;;;;;4952600;28;20058;-86
2023/03/03 08:03:16;;;;;;;1.90;1.40;;;5.80;99.90;;;;;;4961652;28;20054;-86
2023/03/03 08:05:44;;;;;;;1.23;1.05;;;5.80;99.90;;;;;;4945968;28;20177;-85
2023/03/03 08:08:31;;;;;;;2.72;1.58;;;5.80;99.90;;;;;;4944936;28;20059;-87
2023/03/03 08:11:02;;;;;;;2.53;1.50;;;5.80;99.90;;;;;;4962689;28;20420;-86
2023/03/03 08:13:31;;;;;;;4.90;1.52;;;5.80;99.90;;;;;;4966601;28;20050;-85
2023/03/03 08:16:09;;;;;;;2.42;1.55;;;5.80;99.90;;;;;;4964653;28;20055;-86
2023/03/03 08:18:46;;;;;;;2.60;1.77;;;5.90;99.90;;;;;;4928652;29;20524;-87
2023/03/03 08:21:14;;;;;;;2.60;1.70;;;5.90;99.90;;;;;;4935370;28;20150;-86
2023/03/03 08:23:41;;;;;;;2.33;1.60;;;6.00;99.90;;;;;;4949995;28;20542;-86
2023/03/03 08:26:08;;;;;;;2.45;1.50;;;6.00;99.90;;;;;;4926802;28;20488;-87
2023/03/03 08:28:35;;;;;;;1.80;1.40;;;6.00;99.90;;;;;;4959576;28;20165;-86
2023/03/03 08:31:02;;;;;;;2.10;1.50;;;6.10;99.90;;;;;;4945901;28;20138;-87
2023/03/03 08:33:45;;;;;;;1.95;1.52;;;6.20;99.90;;;;;;4940177;28;20074;-86
2023/03/03 08:36:12;;;;;;;1.60;1.42;;;6.20;99.90;;;;;;4945764;28;20138;-85
2023/03/03 08:38:39;;;;;;;1.77;1.60;;;6.30;99.90;;;;;;4927581;28;20066;-87
2023/03/03 08:41:06;;;;;;;2.80;1.90;;;6.40;99.90;;;;;;4949144;28;20118;-87
2023/03/03 08:43:33;;;;;;;3.28;1.98;;;6.50;99.90;;;;;;4962692;28;20054;-87
2023/03/03 08:46:01;;;;;;;3.55;2.17;;;6.60;99.90;;;;;;4958173;28;20146;-87
2023/03/03 08:48:28;;;;;;;2.45;1.40;;;6.60;99.90;;;;;;4957050;28;20547;-87
2023/03/03 08:50:55;;;;;;;1.67;1.50;;;6.70;99.90;;;;;;4957064;28;20065;-87
2023/03/03 08:53:22;;;;;;;2.00;1.60;;;6.70;99.90;;;;;;4959754;28;20171;-87
2023/03/03 08:55:49;;;;;;;2.17;1.60;;;6.80;99.90;;;;;;4960207;28;20137;-87
2023/03/03 08:58:17;;;;;;;1.85;1.40;;;6.90;99.90;;;;;;4960272;28;20084;-87
2023/03/03 09:00:44;;;;;;;1.77;1.15;;;7.00;99.90;;;;;;4958564;28;20078;-77
2023/03/03 09:03:15;;;;;;;2.55;2.15;;;7.10;99.90;;;;;;4965375;28;20250;-81
2023/03/03 09:05:43;;;;;;;2.70;1.80;;;7.10;99.90;;;;;;4923989;29;20069;-80
2023/03/03 09:08:10;;;;;;;3.53;2.25;;;7.00;99.90;;;;;;4961822;28;20058;-80
2023/03/03 09:10:38;;;;;;;1.67;1.45;;;7.00;99.90;;;;;;4957378;28;20130;-81
2023/03/03 09:13:15;;;;;;;3.58;2.13;;;7.10;99.90;;;;;;4955243;28;20055;-80
2023/03/03 09:15:42;;;;;;;2.40;2.00;;;7.00;99.90;;;;;;4953355;28;20064;-80
2023/03/03 09:18:29;;;;;;;3.70;2.20;;;7.00;99.90;;;;;;4941967;28;20058;-80
2023/03/03 09:20:56;;;;;;;2.90;2.17;;;6.90;99.90;;;;;;4958691;28;20859;-80
2023/03/03 09:23:29;;;;;;;3.25;2.25;;;7.10;99.90;;;;;;4969937;28;20241;-80
2023/03/03 09:25:57;;;;;;;;;;;7.10;99.90;;;;;;4939895;28;20142;-80
2023/03/03 09:28:25;;;;;;;2.38;1.92;;;7.10;99.90;;;;;;4970815;28;20024;-80
2023/03/03 09:30:55;;;;;;;2.95;2.10;;;7.10;99.90;;;;;;4973835;28;20065;-80
2023/03/03 09:33:27;;;;;;;2.75;1.80;;;7.20;99.90;;;;;;4944263;28;20445;-80
2023/03/03 09:35:57;;;;;;;2.20;1.50;;;7.30;99.90;;;;;;4958198;28;20391;-80
2023/03/03 09:38:26;;;;;;;4.75;2.20;;;7.40;99.90;;;;;;4969447;28;20142;-80
2023/03/03 09:41:11;;;;;;;2.88;1.63;;;7.40;99.90;;;;;;4975093;28;20050;-80
2023/03/03 09:44:05;;;;;;;4.45;2.13;;;7.40;99.90;;;;;;4953586;28;20078;-80
2023/03/03 09:46:57;;;;;;;2.63;1.75;;;7.50;99.90;;;;;;4977234;28;20066;-80
2023/03/03 09:50:03;;;;;;;1.95;1.42;;;7.50;99.90;;;;;;4953756;28;20138;-80
2023/03/03 09:53:06;;;;;;;2.33;1.60;;;7.60;99.90;;;;;;4939729;29;20083;-81
2023/03/03 09:55:48;;;;;;;2.57;1.67;;;7.70;99.90;;;;;;4962304;28;20078;-86
2023/03/03 09:58:18;;;;;;;2.28;1.40;;;7.80;99.90;;;;;;4963443;28;20079;-86
2023/03/03 10:00:56;;;;;;;1.73;1.30;;;7.90;99.90;;;;;;4962627;28;20577;-86
2023/03/03 10:03:35;;;;;;;2.25;1.20;;;7.90;99.90;;;;;;4970010;28;20281;-85
2023/03/03 10:06:11;;;;;;;2.30;1.52;;;8.00;99.90;;;;;;4981801;28;20128;-86
2023/03/03 10:09:07;;;;;;;2.25;1.30;;;8.00;99.90;;;;;;4981535;28;20304;-86
2023/03/03 10:11:36;;;;;;;2.78;1.75;;;7.90;99.90;;;;;;4980781;28;20050;-89
2023/03/03 10:14:20;;;;;;;1.52;1.25;;;7.80;99.90;;;;;;4976949;28;20058;-88
2023/03/03 10:17:01;;;;;;;2.00;1.23;;;7.80;99.90;;;;;;4982147;28;20089;-87
2023/03/03 10:19:35;;;;;;;2.00;1.25;;;7.70;99.90;;;;;;4955725;28;20043;-86
2023/03/03 10:22:19;;;;;;;1.67;1.00;;;7.60;99.90;;;;;;4958058;28;20042;-85
2023/03/03 10:25:17;;;;;;;1.70;1.35;;;7.50;99.90;;;;;;4955275;28;20065;-84
2023/03/03 10:28:12;;;;;;;1.50;1.02;;;7.50;99.90;;;;;;4952098;28;20051;-86
2023/03/03 10:31:09;;;;;;;1.63;1.13;;;7.50;99.90;;;;;;4958117;28;20446;-86
2023/03/03 10:34:00;;;;;;;1.30;1.00;;;7.50;99.90;;;;;;4964111;28;20082;-86
2023/03/03 10:36:34;;;;;;;1.10;1.00;;;7.50;99.90;;;;;;4960794;28;20047;-88
2023/03/03 10:39:11;;;;;;;1.90;1.30;;;7.50;99.90;;;;;;4956807;28;20062;-88
2023/03/03 10:41:43;;;;;;;2.22;1.40;;;7.60;99.90;;;;;;4967432;28;20055;-86
2023/03/03 10:44:31;;;;;;;2.17;1.05;;;7.60;99.90;;;;;;4964415;28;20144;-85
2023/03/03 10:47:00;;;;;;;1.95;1.30;;;7.70;99.90;;;;;;4973763;28;20089;-88
2023/03/03 10:49:38;;;;;;;1.65;1.00;;;7.80;99.90;;;;;;4962001;28;20111;-87
2023/03/03 10:53:03;;;;;;;2.55;1.13;;;7.90;99.90;;;;;;4966163;28;20134;-87
2023/03/03 10:55:41;;;;;;;1.40;1.02;;;7.90;99.90;;;;;;4912639;29;20236;-87
2023/03/03 10:58:08;;;;;;;1.50;0.90;;;8.00;99.90;;;;;;4907711;29;20306;-87
2023/03/03 11:00:40;;;;;;;2.65;1.20;;;8.00;99.90;;;;;;4941996;28;20189;-87
2023/03/03 11:03:13;;;;;;;1.17;0.93;;;8.10;99.90;;;;;;4948673;28;20459;-87
2023/03/03 11:06:09;;;;;;;1.77;1.30;;;8.20;99.90;;;;;;4961005;28;20065;-88
2023/03/03 11:08:43;;;;;;;1.75;1.30;;;8.30;99.90;;;;;;4954686;28;20055;-85
2023/03/03 11:11:32;;;;;;;1.58;1.40;;;8.40;99.90;;;;;;4978730;28;20166;-86
2023/03/03 11:14:39;;;;;;;2.22;1.40;;;8.40;99.90;;;;;;4968294;28;20153;-85
2023/03/03 11:17:15;;;;;;;1.88;0.93;;;8.50;99.90;;;;;;4935420;28;20047;-85
2023/03/03 11:19:51;;;;;;;1.10;1.00;;;8.70;99.90;;;;;;4967637;28;20085;-84
2023/03/03 11:22:49;;;;;;;0.90;0.80;;;8.70;99.90;;;;;;4962607;28;20105;-83
2023/03/03 11:25:33;;;;;;;1.23;0.80;;;8.70;99.90;;;;;;4931890;28;20160;-84
2023/03/03 11:28:12;;;;;;;;;;;8.70;99.90;;;;;;4964216;28;20471;-83
2023/03/03 11:30:38;;;;;;;1.63;1.33;;;8.70;99.90;;;;;;4967056;28;20455;-85
2023/03/03 11:33:07;;;;;;;2.33;1.35;;;8.60;99.90;;;;;;4971959;28;20058;-84
2023/03/03 11:35:47;;;;;;;1.25;0.90;;;8.60;99.90;;;;;;4986609;28;20150;-82
2023/03/03 11:38:35;;;;;;;1.25;0.77;;;8.50;99.90;;;;;;4986290;28;20112;-82
2023/03/03 11:41:33;;;;;;;1.70;0.75;;;8.50;99.90;;;;;;4985135;28;20046;-82
2023/03/03 11:44:10;;;;;;;1.75;1.10;;;8.40;99.90;;;;;;4986582;28;20070;-88
2023/03/03 11:46:44;;;;;;;1.17;0.70;;;8.30;99.90;;;;;;4983947;28;20047;-82
2023/03/03 11:49:37;;;;;;;1.60;1.23;;;8.30;99.90;;;;;;4982310;28;20138;-81
2023/03/03 11:52:13;;;;;;;0.87;0.87;;;8.40;99.90;;;;;;4963910;28;20046;-83
2023/03/03 11:54:55;;;;;;;1.38;0.95;;;8.30;99.90;;;;;;4983711;28;20469;-84
2023/03/03 11:57:28;;;;;;;1.40;1.00;;;8.20;99.90;;;;;;4985231;28;20081;-82
2023/03/03 12:00:17;;;;;;;0.95;0.85;;;8.20;99.90;;;;;;4982497;28;20257;-84
2023/03/03 12:03:12;;;;;;;1.17;0.80;;;8.20;99.90;;;;;;4994544;28;20834;-84
2023/03/03 12:06:00;;;;;;;1.15;0.80;;;8.10;99.90;;;;;;4956245;28;20471;-83
2023/03/03 12:08:45;;;;;;;1.00;0.80;;;8.00;99.90;;;;;;4941242;28;20051;-84
2023/03/03 12:11:26;;;;;;;1.35;0.85;;;8.00;99.90;;;;;;4977926;28;20059;-84
2023/03/03 12:14:34;;;;;;;0.82;0.60;;;8.00;99.90;;;;;;4970758;28;20141;-85
2023/03/03 12:17:10;;;;;;;1.25;0.65;;;8.00;99.90;;;;;;4963511;28;20145;-82
2023/03/03 12:19:55;;;;;;;1.05;0.80;;;7.90;99.90;;;;;;4945159;28;20512;-84
2023/03/03 12:22:34;;;;;;;1.13;0.70;;;7.90;99.90;;;;;;4953370;28;20064;-85
2023/03/03 12:25:13;;;;;;;1.08;0.80;;;7.90;99.90;;;;;;4945846;28;20051;-83
2023/03/03 12:27:56;;;;;;;1.20;0.60;;;7.90;99.90;;;;;;4944798;28;20063;-84
2023/03/03 12:30:37;;;;;;;0.50;0.50;;;7.80;99.90;;;;;;4960992;28;20058;-83
2023/03/03 12:33:17;;;;;;;1.35;0.80;;;7.90;99.90;;;;;;4947739;28;20134;-83
2023/03/03 12:35:53;;;;;;;0.80;0.80;;;7.90;99.90;;;;;;4962879;28;20154;-84
2023/03/03 12:38:48;;;;;;;1.15;0.80;;;7.80;99.90;;;;;;4943472;28;20158;-85
2023/03/03 12:41:36;;;;;;;1.50;0.60;;;7.80;99.90;;;;;;4946695;28;20055;-85
2023/03/03 12:44:23;;;;;;;0.95;0.90;;;7.80;99.90;;;;;;4979555;28;20138;-83
2023/03/03 12:49:32;;;;;;;0.88;0.50;;;7.80;99.90;;;;;;4989885;28;20575;-77
2023/03/03 12:52:16;;;;;;;0.50;0.50;;;8.10;99.90;;;;;;4990164;28;20057;-79
2023/03/03 12:55:00;;;;;;;1.25;0.60;;;8.20;99.90;;;;;;4988957;28;20138;-77
2023/03/03 12:57:36;;;;;;;0.60;0.50;;;8.50;99.90;;;;;;5003509;28;20053;-79
2023/03/03 13:00:23;;;;;;;1.50;0.80;;;8.80;99.90;;;;;;5032192;28;20147;-79
2023/03/03 13:03:13;;;;;;;1.65;0.70;;;9.00;99.90;;;;;;4974637;28;20413;-78
2023/03/03 13:05:56;;;;;;;1.65;1.00;;;8.90;99.90;;;;;;4943406;28;20531;-78
2023/03/03 13:08:31;;;;;;;1.55;0.85;;;8.80;99.90;;;;;;4985059;28;20045;-78
2023/03/03 13:11:12;;;;;;;0.60;0.60;;;8.70;99.90;;;;;;4993757;28;20388;-78
2023/03/03 13:13:49;;;;;;;1.48;0.70;;;8.50;99.90;;;;;;4991557;28;20126;-78
2023/03/03 13:16:40;;;;;;;0.65;0.60;;;8.40;99.90;;;;;;5005568;28;20514;-78
2023/03/03 13:19:21;;;;;;;1.00;0.40;;;8.30;99.90;;;;;;5001828;28;20523;-77
2023/03/03 13:21:58;;;;;;;0.75;0.45;;;8.40;99.90;;;;;;5002460;28;20049;-77
2023/03/03 13:24:36;;;;;;;0.65;0.40;;;8.30;99.90;;;;;;4994771;28;20357;-77
2023/03/03 13:27:13;;;;;;;0.50;0.50;;;8.20;99.90;;;;;;4989576;28;20312;-74
2023/03/03 13:29:54;;;;;;;0.95;0.70;;;8.10;99.90;;;;;;4992756;28;20049;-78
2023/03/03 13:32:30;;;;;;;1.05;0.60;;;8.00;99.90;;;;;;4982384;28;20199;-74